sensor_id;sensor_type;location;lat;lon;timestamp;pressure;altitude;pressure_sealevel;temperature;humidity
65800;BME280;52544;48.116;11.660;2023-09-19T00:00:01;95314.81;;;16.14;100.00
65800;BME280;52544;48.116;11.660;2023-09-19T00:02:26;95310.13;;;16.16;100.00
65800;BME280;52544;48.116;11.660;2023-09-19T00:04:52;95312.78;;;16.16;100.00
65800;BME280;52544;48.116;11.660;2023-09-19T00:07:19;95313.47;;;16.18;100.00
65800;BME280;52544;48.116;11.660;2023-09-19T00:09:44;95304.44;;;16.19;100.00
65800;BME280;52544;48.116;11.660;2023-09-19T00:12:09;95304.78;;;16.16;100.00
65800;BME280;52544;48.116;11.660;2023-09-19T00:14:35;95308.28;;;16.17;100.00
65800;BME280;52544;48.116;11.660;2023-09-19T00:17:03;95306.28;;;16.19;100.00
65800;BME280;52544;48.116;11.660;2023-09-19T00:19:36;95310.78;;;16.18;100.00
65800;BME280;52544;48.116;11.660;2023-09-19T00:22:02;95310.59;;;16.20;100.00
65800;BME280;52544;48.116;11.660;2023-09-19T00:24:28;95315.94;;;16.20;100.00
65800;BME280;52544;48.116;11.660;2023-09-19T00:26:54;95318.44;;;16.21;100.00
65800;BME280;52544;48.116;11.660;2023-09-19T00:29:21;95316.78;;;16.20;100.00
65800;BME280;52544;48.116;11.660;2023-09-19T00:31:47;95322.13;;;16.20;100.00
65800;BME280;52544;48.116;11.660;2023-09-19T00:34:12;95320.75;;;16.24;100.00
65800;BME280;52544;48.116;11.660;2023-09-19T00:36:38;95320.75;;;16.24;100.00
65800;BME280;52544;48.116;11.660;2023-09-19T00:39:08;95324.25;;;16.25;100.00
65800;BME280;52544;48.116;11.660;2023-09-19T00:41:34;95324.25;;;16.25;100.00
65800;BME280;52544;48.116;11.660;2023-09-19T00:44:03;95318.09;;;16.24;100.00
65800;BME280;52544;48.116;11.660;2023-09-19T00:46:32;95313.41;;;16.27;100.00
65800;BME280;52544;48.116;11.660;2023-09-19T00:48:58;95318.59;;;16.28;100.00
65800;BME280;52544;48.116;11.660;2023-09-19T00:51:25;95319.59;;;16.27;100.00
65800;BME280;52544;48.116;11.660;2023-09-19T00:53:52;95323.09;;;16.28;100.00
65800;BME280;52544;48.116;11.660;2023-09-19T00:56:18;95320.06;;;16.31;100.00
65800;BME280;52544;48.116;11.660;2023-09-19T00:58:47;95323.09;;;16.28;100.00
65800;BME280;52544;48.116;11.660;2023-09-19T01:01:13;95332.59;;;16.30;100.00
65800;BME280;52544;48.116;11.660;2023-09-19T01:03:40;95337.78;;;16.32;100.00
65800;BME280;52544;48.116;11.660;2023-09-19T01:06:06;95328.56;;;16.34;100.00
65800;BME280;52544;48.116;11.660;2023-09-19T01:08:33;95335.56;;;16.35;100.00
65800;BME280;52544;48.116;11.660;2023-09-19T01:14:07;95350.44;;;16.38;100.00
65800;BME280;52544;48.116;11.660;2023-09-19T01:16:42;95349.25;;;16.40;100.00
65800;BME280;52544;48.116;11.660;2023-09-19T01:22:16;95344.06;;;16.39;100.00
65800;BME280;52544;48.116;11.660;2023-09-19T01:25:12;95356.44;;;16.40;100.00
65800;BME280;52544;48.116;11.660;2023-09-19T01:28:48;95359.13;;;16.40;100.00
65800;BME280;52544;48.116;11.660;2023-09-19T01:30:55;95356.59;;;16.38;100.00
65800;BME280;52544;48.116;11.660;2023-09-19T01:33:23;95361.94;;;16.38;100.00
65800;BME280;52544;48.116;11.660;2023-09-19T01:35:48;95367.47;;;16.37;100.00
65800;BME280;52544;48.116;11.660;2023-09-19T01:38:15;95372.94;;;16.35;100.00
65800;BME280;52544;48.116;11.660;2023-09-19T01:40:42;95373.97;;;16.34;100.00
65800;BME280;52544;48.116;11.660;2023-09-19T01:43:23;95375.81;;;16.34;100.00
65800;BME280;52544;48.116;11.660;2023-09-19T01:48:42;95377.81;;;16.32;100.00
65800;BME280;52544;48.116;11.660;2023-09-19T01:51:18;95375.97;;;16.32;100.00
65800;BME280;52544;48.116;11.660;2023-09-19T01:54:03;95384.81;;;16.33;100.00
65800;BME280;52544;48.116;11.660;2023-09-19T01:56:41;95383.16;;;16.32;100.00
65800;BME280;52544;48.116;11.660;2023-09-19T01:59:11;95395.69;;;16.31;100.00
65800;BME280;52544;48.116;11.660;2023-09-19T02:01:39;95392.16;;;16.31;100.00
65800;BME280;52544;48.116;11.660;2023-09-19T02:04:05;95381.97;;;16.34;100.00
65800;BME280;52544;48.116;11.660;2023-09-19T02:06:32;95376.63;;;16.34;100.00
65800;BME280;52544;48.116;11.660;2023-09-19T02:08:59;95379.16;;;16.36;100.00
65800;BME280;52544;48.116;11.660;2023-09-19T02:11:24;95381.97;;;16.34;100.00
65800;BME280;52544;48.116;11.660;2023-09-19T02:13:50;95387.16;;;16.36;100.00
65800;BME280;52544;48.116;11.660;2023-09-19T02:16:19;95386.31;;;16.35;100.00
65800;BME280;52544;48.116;11.660;2023-09-19T02:18:49;95381.81;;;16.36;100.00
65800;BME280;52544;48.116;11.660;2023-09-19T02:21:16;95378.13;;;16.37;100.00
65800;BME280;52544;48.116;11.660;2023-09-19T02:23:43;95391.50;;;16.37;100.00
65800;BME280;52544;48.116;11.660;2023-09-19T02:26:08;95385.81;;;16.40;100.00
65800;BME280;52544;48.116;11.660;2023-09-19T02:28:34;95392.13;;;16.39;100.00
65800;BME280;52544;48.116;11.660;2023-09-19T02:31:01;95384.31;;;16.37;100.00
65800;BME280;52544;48.116;11.660;2023-09-19T02:33:26;95386.97;;;16.37;100.00
65800;BME280;52544;48.116;11.660;2023-09-19T02:35:58;95386.16;;;16.37;100.00
65800;BME280;52544;48.116;11.660;2023-09-19T02:38:25;95388.97;;;16.35;100.00
65800;BME280;52544;48.116;11.660;2023-09-19T02:40:52;95394.81;;;16.39;100.00
65800;BME280;52544;48.116;11.660;2023-09-19T02:43:17;95386.78;;;16.39;100.00
65800;BME280;52544;48.116;11.660;2023-09-19T02:45:45;95394.69;;;16.32;100.00
65800;BME280;52544;48.116;11.660;2023-09-19T02:48:12;95388.13;;;16.35;100.00
65800;BME280;52544;48.116;11.660;2023-09-19T02:50:38;95388.97;;;16.35;100.00
65800;BME280;52544;48.116;11.660;2023-09-19T02:53:04;95389.84;;;16.36;100.00
65800;BME280;52544;48.116;11.660;2023-09-19T02:55:30;95392.50;;;16.36;100.00
65800;BME280;52544;48.116;11.660;2023-09-19T02:57:55;95386.47;;;16.34;100.00
65800;BME280;52544;48.116;11.660;2023-09-19T03:00:21;95389.16;;;16.34;100.00
65800;BME280;52544;48.116;11.660;2023-09-19T03:02:48;95404.53;;;16.32;100.00
65800;BME280;52544;48.116;11.660;2023-09-19T03:05:14;95402.69;;;16.32;100.00
65800;BME280;52544;48.116;11.660;2023-09-19T03:07:39;95385.66;;;16.33;100.00
65800;BME280;52544;48.116;11.660;2023-09-19T03:10:06;95400.16;;;16.31;100.00
65800;BME280;52544;48.116;11.660;2023-09-19T03:12:33;95391.19;;;16.32;100.00
65800;BME280;52544;48.116;11.660;2023-09-19T03:14:59;95395.50;;;16.33;100.00
65800;BME280;52544;48.116;11.660;2023-09-19T03:17:25;95393.03;;;16.31;100.00
65800;BME280;52544;48.116;11.660;2023-09-19T03:19:50;95399.53;;;16.29;100.00
65800;BME280;52544;48.116;11.660;2023-09-19T03:22:16;95401.34;;;16.28;100.00
65800;BME280;52544;48.116;11.660;2023-09-19T03:24:41;95396.66;;;16.30;100.00
65800;BME280;52544;48.116;11.660;2023-09-19T03:27:09;95402.19;;;16.29;100.00
65800;BME280;52544;48.116;11.660;2023-09-19T03:29:35;95404.19;;;16.27;100.00
65800;BME280;52544;48.116;11.660;2023-09-19T03:32:01;95407.88;;;16.25;100.00
65800;BME280;52544;48.116;11.660;2023-09-19T03:34:27;95412.56;;;16.23;100.00
65800;BME280;52544;48.116;11.660;2023-09-19T03:36:52;95416.19;;;16.22;100.00
65800;BME280;52544;48.116;11.660;2023-09-19T03:39:17;95416.19;;;16.22;100.00
65800;BME280;52544;48.116;11.660;2023-09-19T03:41:43;95410.88;;;16.22;100.00
65800;BME280;52544;48.116;11.660;2023-09-19T03:44:08;95412.69;;;16.22;100.00
65800;BME280;52544;48.116;11.660;2023-09-19T03:46:34;95411.88;;;16.21;100.00
65800;BME280;52544;48.116;11.660;2023-09-19T03:49:01;95418.22;;;16.20;100.00
65800;BME280;52544;48.116;11.660;2023-09-19T03:51:26;95413.72;;;16.21;100.00
65800;BME280;52544;48.116;11.660;2023-09-19T03:53:52;95412.88;;;16.20;100.00
65800;BME280;52544;48.116;11.660;2023-09-19T03:56:17;95408.38;;;16.21;100.00
65800;BME280;52544;48.116;11.660;2023-09-19T03:58:43;95417.56;;;16.18;100.00
65800;BME280;52544;48.116;11.660;2023-09-19T04:01:08;95414.72;;;16.20;100.00
65800;BME280;52544;48.116;11.660;2023-09-19T04:03:34;95415.56;;;16.20;100.00
65800;BME280;52544;48.116;11.660;2023-09-19T04:06:16;95412.88;;;16.20;100.00
65800;BME280;52544;48.116;11.660;2023-09-19T04:08:42;95411.38;;;16.18;100.00
65800;BME280;52544;48.116;11.660;2023-09-19T04:11:08;95419.38;;;16.18;100.00
65800;BME280;52544;48.116;11.660;2023-09-19T04:13:34;95414.03;;;16.18;100.00
65800;BME280;52544;48.116;11.660;2023-09-19T04:16:00;95418.41;;;16.19;100.00
65800;BME280;52544;48.116;11.660;2023-09-19T04:18:25;95427.38;;;16.18;100.00
65800;BME280;52544;48.116;11.660;2023-09-19T04:20:51;95428.41;;;16.17;100.00
65800;BME280;52544;48.116;11.660;2023-09-19T04:23:17;95429.09;;;16.19;100.00
65800;BME280;52544;48.116;11.660;2023-09-19T04:25:43;95431.91;;;16.17;100.00
65800;BME280;52544;48.116;11.660;2023-09-19T04:28:09;95443.59;;;16.16;100.00
65800;BME280;52544;48.116;11.660;2023-09-19T04:30:39;95434.75;;;16.16;100.00
65800;BME280;52544;48.116;11.660;2023-09-19T04:33:07;95433.75;;;16.17;100.00
65800;BME280;52544;48.116;11.660;2023-09-19T04:35:33;95440.91;;;16.16;100.00
65800;BME280;52544;48.116;11.660;2023-09-19T04:37:59;95448.09;;;16.16;100.00
65800;BME280;52544;48.116;11.660;2023-09-19T04:40:25;95454.09;;;16.18;100.00
65800;BME280;52544;48.116;11.660;2023-09-19T04:42:55;95449.94;;;16.15;100.00
65800;BME280;52544;48.116;11.660;2023-09-19T04:45:22;95451.59;;;16.16;100.00
65800;BME280;52544;48.116;11.660;2023-09-19T04:47:48;95461.25;;;16.17;100.00
65800;BME280;52544;48.116;11.660;2023-09-19T04:50:13;95456.09;;;16.16;100.00
65800;BME280;52544;48.116;11.660;2023-09-19T04:52:42;95472.13;;;16.16;100.00
65800;BME280;52544;48.116;11.660;2023-09-19T04:55:12;95465.78;;;16.17;100.00
65800;BME280;52544;48.116;11.660;2023-09-19T04:57:51;95467.44;;;16.18;100.00
65800;BME280;52544;48.116;11.660;2023-09-19T05:00:19;95480.47;;;16.21;100.00
65800;BME280;52544;48.116;11.660;2023-09-19T05:02:55;95472.63;;;16.19;100.00
65800;BME280;52544;48.116;11.660;2023-09-19T05:05:22;95474.28;;;16.20;100.00
65800;BME280;52544;48.116;11.660;2023-09-19T05:07:49;95486.31;;;16.24;100.00
65800;BME280;52544;48.116;11.660;2023-09-19T05:10:15;95488.97;;;16.24;100.00
65800;BME280;52544;48.116;11.660;2023-09-19T05:12:43;95498.50;;;16.27;100.00
65800;BME280;52544;48.116;11.660;2023-09-19T05:15:11;95491.31;;;16.28;100.00
65800;BME280;52544;48.116;11.660;2023-09-19T05:17:36;95500.66;;;16.32;100.00
65800;BME280;52544;48.116;11.660;2023-09-19T05:20:02;95495.13;;;16.33;100.00
65800;BME280;52544;48.116;11.660;2023-09-19T05:22:57;95504.66;;;16.36;100.00
65800;BME280;52544;48.116;11.660;2023-09-19T05:25:22;95508.81;;;16.38;100.00
65800;BME280;52544;48.116;11.660;2023-09-19T05:27:48;95506.00;;;16.40;100.00
65800;BME280;52544;48.116;11.660;2023-09-19T05:30:13;95507.47;;;16.42;100.00
65800;BME280;52544;48.116;11.660;2023-09-19T05:32:40;95512.50;;;16.45;100.00
65800;BME280;52544;48.116;11.660;2023-09-19T05:35:05;95513.13;;;16.47;100.00
65800;BME280;52544;48.116;11.660;2023-09-19T05:37:35;95509.31;;;16.50;100.00
65800;BME280;52544;48.116;11.660;2023-09-19T05:40:02;95508.97;;;16.53;100.00
65800;BME280;52544;48.116;11.660;2023-09-19T05:42:27;95516.16;;;16.53;100.00
65800;BME280;52544;48.116;11.660;2023-09-19T05:44:53;95517.63;;;16.55;100.00
65800;BME280;52544;48.116;11.660;2023-09-19T05:47:18;95518.47;;;16.56;100.00
65800;BME280;52544;48.116;11.660;2023-09-19T05:49:43;95529.97;;;16.56;100.00
65800;BME280;52544;48.116;11.660;2023-09-19T05:52:09;95525.66;;;16.55;100.00
65800;BME280;52544;48.116;11.660;2023-09-19T05:54:34;95528.31;;;16.55;100.00
65800;BME280;52544;48.116;11.660;2023-09-19T05:57:00;95533.66;;;16.55;100.00
65800;BME280;52544;48.116;11.660;2023-09-19T05:59:27;95531.00;;;16.55;100.00
65800;BME280;52544;48.116;11.660;2023-09-19T06:01:52;95533.66;;;16.55;100.00
65800;BME280;52544;48.116;11.660;2023-09-19T06:04:18;95537.34;;;16.54;100.00
65800;BME280;52544;48.116;11.660;2023-09-19T06:06:44;95540.03;;;16.54;100.00
65800;BME280;52544;48.116;11.660;2023-09-19T06:09:10;95535.50;;;16.55;100.00
65800;BME280;52544;48.116;11.660;2023-09-19T06:11:35;95539.31;;;16.60;100.00
65800;BME280;52544;48.116;11.660;2023-09-19T06:14:04;95534.34;;;16.65;100.00
65800;BME280;52544;48.116;11.660;2023-09-19T06:16:30;95540.00;;;16.70;100.00
65800;BME280;52544;48.116;11.660;2023-09-19T06:18:57;95539.66;;;16.73;100.00
65800;BME280;52544;48.116;11.660;2023-09-19T06:21:22;95536.66;;;16.77;100.00
65800;BME280;52544;48.116;11.660;2023-09-19T06:23:48;95540.84;;;16.79;100.00
65800;BME280;52544;48.116;11.660;2023-09-19T06:26:14;95532.31;;;16.84;100.00
65800;BME280;52544;48.116;11.660;2023-09-19T06:28:40;95546.69;;;16.91;100.00
65800;BME280;52544;48.116;11.660;2023-09-19T06:31:06;95544.28;;;17.04;100.00
65800;BME280;52544;48.116;11.660;2023-09-19T06:33:35;95551.28;;;17.13;100.00
65800;BME280;52544;48.116;11.660;2023-09-19T06:36:04;95547.22;;;17.26;100.00
65800;BME280;52544;48.116;11.660;2023-09-19T06:38:30;95544.97;;;17.37;100.00
65800;BME280;52544;48.116;11.660;2023-09-19T06:40:56;95549.81;;;17.50;100.00
65800;BME280;52544;48.116;11.660;2023-09-19T06:43:23;95551.38;;;17.67;100.00
65800;BME280;52544;48.116;11.660;2023-09-19T06:45:49;95542.16;;;17.70;100.00
65800;BME280;52544;48.116;11.660;2023-09-19T06:48:15;95553.41;;;17.65;100.00
65800;BME280;52544;48.116;11.660;2023-09-19T06:50:41;95555.59;;;17.62;100.00
65800;BME280;52544;48.116;11.660;2023-09-19T06:53:06;95554.09;;;17.59;100.00
65800;BME280;52544;48.116;11.660;2023-09-19T06:55:32;95557.31;;;17.55;100.00
65800;BME280;52544;48.116;11.660;2023-09-19T06:57:57;95561.34;;;17.51;100.00
65800;BME280;52544;48.116;11.660;2023-09-19T07:00:24;95571.38;;;17.48;100.00
65800;BME280;52544;48.116;11.660;2023-09-19T07:05:27;95561.19;;;17.44;100.00
65800;BME280;52544;48.116;11.660;2023-09-19T07:07:53;95568.88;;;17.47;100.00
65800;BME280;52544;48.116;11.660;2023-09-19T07:10:20;95567.53;;;17.51;100.00
65800;BME280;52544;48.116;11.660;2023-09-19T07:12:54;95572.00;;;17.59;100.00
65800;BME280;52544;48.116;11.660;2023-09-19T07:15:19;95574.81;;;17.65;100.00
65800;BME280;52544;48.116;11.660;2023-09-19T07:17:46;95581.66;;;17.76;100.00
65800;BME280;52544;48.116;11.660;2023-09-19T07:20:12;95579.63;;;17.78;100.00
65800;BME280;52544;48.116;11.660;2023-09-19T07:22:41;95582.63;;;17.75;100.00
65800;BME280;52544;48.116;11.660;2023-09-19T07:25:07;95584.34;;;17.76;100.00
65800;BME280;52544;48.116;11.660;2023-09-19T07:27:33;95583.81;;;17.72;100.00
65800;BME280;52544;48.116;11.660;2023-09-19T07:29:59;95588.31;;;17.72;100.00
65800;BME280;52544;48.116;11.660;2023-09-19T07:32:24;95597.34;;;17.71;100.00
65800;BME280;52544;48.116;11.660;2023-09-19T07:34:50;95587.50;;;17.71;100.00
65800;BME280;52544;48.116;11.660;2023-09-19T07:37:15;95589.16;;;17.72;100.00
65800;BME280;52544;48.116;11.660;2023-09-19T07:39:42;95590.19;;;17.71;100.00
65800;BME280;52544;48.116;11.660;2023-09-19T07:42:08;95589.50;;;17.78;100.00
65800;BME280;52544;48.116;11.660;2023-09-19T07:44:35;95589.94;;;17.89;100.00
65800;BME280;52544;48.116;11.660;2023-09-19T07:47:01;95592.03;;;18.02;100.00
65800;BME280;52544;48.116;11.660;2023-09-19T07:49:28;95587.63;;;18.09;100.00
65800;BME280;52544;48.116;11.660;2023-09-19T07:51:54;95587.28;;;18.12;100.00
65800;BME280;52544;48.116;11.660;2023-09-19T07:54:20;95586.94;;;18.15;100.00
65800;BME280;52544;48.116;11.660;2023-09-19T07:56:46;95594.78;;;18.17;100.00
65800;BME280;52544;48.116;11.660;2023-09-19T07:59:12;95586.22;;;18.21;100.00
65800;BME280;52544;48.116;11.660;2023-09-19T08:01:39;95595.84;;;18.31;100.00
65800;BME280;52544;48.116;11.660;2023-09-19T08:04:05;95589.84;;;18.29;100.00
65800;BME280;52544;48.116;11.660;2023-09-19T08:06:30;95594.84;;;18.32;100.00
65800;BME280;52544;48.116;11.660;2023-09-19T08:08:56;95601.53;;;18.36;100.00
65800;BME280;52544;48.116;11.660;2023-09-19T08:11:22;95602.66;;;18.41;100.00
65800;BME280;52544;48.116;11.660;2023-09-19T08:13:50;95600.25;;;18.46;100.00
65800;BME280;52544;48.116;11.660;2023-09-19T08:16:16;95593.38;;;18.52;100.00
65800;BME280;52544;48.116;11.660;2023-09-19T08:18:47;95602.06;;;18.54;100.00
65800;BME280;52544;48.116;11.660;2023-09-19T08:21:13;95606.59;;;18.54;100.00
65800;BME280;52544;48.116;11.660;2023-09-19T08:23:41;95603.34;;;18.58;100.00
65800;BME280;52544;48.116;11.660;2023-09-19T08:26:07;95609.06;;;18.55;100.00
65800;BME280;52544;48.116;11.660;2023-09-19T08:28:33;95600.31;;;18.61;100.00
65800;BME280;52544;48.116;11.660;2023-09-19T08:31:06;95600.63;;;18.66;100.00
65800;BME280;52544;48.116;11.660;2023-09-19T08:33:35;95600.94;;;18.71;100.00
65800;BME280;52544;48.116;11.660;2023-09-19T08:36:02;95600.38;;;18.76;100.00
65800;BME280;52544;48.116;11.660;2023-09-19T08:38:33;95600.03;;;18.79;100.00
65800;BME280;52544;48.116;11.660;2023-09-19T08:41:07;95605.13;;;18.89;100.00
65800;BME280;52544;48.116;11.660;2023-09-19T08:43:34;95604.78;;;18.92;100.00
65800;BME280;52544;48.116;11.660;2023-09-19T08:48:34;95607.59;;;19.13;100.00
65800;BME280;52544;48.116;11.660;2023-09-19T08:51:07;95598.16;;;19.17;100.00
65800;BME280;52544;48.116;11.660;2023-09-19T08:53:42;95607.06;;;19.33;100.00
65800;BME280;52544;48.116;11.660;2023-09-19T08:56:17;95604.44;;;19.39;100.00
65800;BME280;52544;48.116;11.660;2023-09-19T08:58:49;95607.88;;;19.48;100.00
65800;BME280;52544;48.116;11.660;2023-09-19T09:01:17;95600.47;;;19.50;100.00
65800;BME280;52544;48.116;11.660;2023-09-19T09:03:51;95608.97;;;19.54;100.00
65800;BME280;52544;48.116;11.660;2023-09-19T09:06:17;95616.50;;;19.58;100.00
65800;BME280;52544;48.116;11.660;2023-09-19T09:08:46;95605.56;;;19.60;100.00
65800;BME280;52544;48.116;11.660;2023-09-19T09:11:12;95607.41;;;19.59;100.00
65800;BME280;52544;48.116;11.660;2023-09-19T09:13:38;95608.75;;;19.63;100.00
65800;BME280;52544;48.116;11.660;2023-09-19T09:16:07;95615.66;;;19.72;100.00
65800;BME280;52544;48.116;11.660;2023-09-19T09:18:33;95611.59;;;19.77;100.00
65800;BME280;52544;48.116;11.660;2023-09-19T09:20:59;95617.59;;;19.79;100.00
65800;BME280;52544;48.116;11.660;2023-09-19T09:23:26;95611.75;;;19.75;100.00
65800;BME280;52544;48.116;11.660;2023-09-19T09:25:55;95612.97;;;19.72;100.00
65800;BME280;52544;48.116;11.660;2023-09-19T09:28:34;95622.78;;;19.65;100.00
65800;BME280;52544;48.116;11.660;2023-09-19T09:31:01;95621.00;;;19.58;100.00
65800;BME280;52544;48.116;11.660;2023-09-19T09:33:34;95609.53;;;19.49;100.00
65800;BME280;52544;48.116;11.660;2023-09-19T09:36:01;95616.75;;;19.48;100.00
65800;BME280;52544;48.116;11.660;2023-09-19T09:38:29;95616.59;;;19.65;100.00
65800;BME280;52544;48.116;11.660;2023-09-19T09:40:59;95608.25;;;19.89;100.00
65800;BME280;52544;48.116;11.660;2023-09-19T09:43:35;95612.81;;;20.10;100.00
65800;BME280;52544;48.116;11.660;2023-09-19T09:46:17;95618.41;;;20.30;100.00
65800;BME280;52544;48.116;11.660;2023-09-19T09:51:40;95622.81;;;20.74;100.00
65800;BME280;52544;48.116;11.660;2023-09-19T09:54:18;95621.72;;;20.68;100.00
65800;BME280;52544;48.116;11.660;2023-09-19T09:56:52;95612.78;;;20.61;100.00
65800;BME280;52544;48.116;11.660;2023-09-19T09:59:18;95621.56;;;20.77;100.00
65800;BME280;52544;48.116;11.660;2023-09-19T10:01:49;95616.31;;;20.68;100.00
65800;BME280;52544;48.116;11.660;2023-09-19T10:04:28;95613.97;;;20.59;100.00
65800;BME280;52544;48.116;11.660;2023-09-19T10:07:01;95622.75;;;20.67;100.00
65800;BME280;52544;48.116;11.660;2023-09-19T10:09:44;95619.41;;;20.87;100.00
65800;BME280;52544;48.116;11.660;2023-09-19T10:12:12;95610.75;;;21.19;100.00
65800;BME280;52544;48.116;11.660;2023-09-19T10:14:39;95613.59;;;21.33;100.00
65800;BME280;52544;48.116;11.660;2023-09-19T10:17:09;95613.25;;;21.49;100.00
65800;BME280;52544;48.116;11.660;2023-09-19T10:19:56;95610.72;;;21.76;99.60
65800;BME280;52544;48.116;11.660;2023-09-19T10:22:26;95601.50;;;21.98;99.03
65800;BME280;52544;48.116;11.660;2023-09-19T10:24:57;95609.88;;;22.16;93.43
65800;BME280;52544;48.116;11.660;2023-09-19T10:27:26;95615.72;;;22.27;95.67
65800;BME280;52544;48.116;11.660;2023-09-19T10:29:52;95609.31;;;22.41;98.33
65800;BME280;52544;48.116;11.660;2023-09-19T10:32:22;95620.59;;;22.64;91.15
65800;BME280;52544;48.116;11.660;2023-09-19T10:34:49;95611.06;;;22.82;91.55
65800;BME280;52544;48.116;11.660;2023-09-19T10:37:20;95614.63;;;22.95;93.10
65800;BME280;52544;48.116;11.660;2023-09-19T10:39:48;95618.53;;;23.06;88.00
65800;BME280;52544;48.116;11.660;2023-09-19T10:42:19;95622.72;;;23.09;88.70
65800;BME280;52544;48.116;11.660;2023-09-19T10:44:45;95615.66;;;23.14;90.20
65800;BME280;52544;48.116;11.660;2023-09-19T10:47:12;95620.63;;;23.31;84.54
65800;BME280;52544;48.116;11.660;2023-09-19T10:49:45;95608.16;;;23.43;81.61
65800;BME280;52544;48.116;11.660;2023-09-19T10:52:16;95616.03;;;23.51;80.57
65800;BME280;52544;48.116;11.660;2023-09-19T10:54:55;95613.94;;;23.40;82.03
65800;BME280;52544;48.116;11.660;2023-09-19T10:57:23;95622.06;;;23.40;86.77
65800;BME280;52544;48.116;11.660;2023-09-19T11:00:06;95619.34;;;23.53;85.25
65800;BME280;52544;48.116;11.660;2023-09-19T11:05:39;95611.63;;;23.77;85.40
65800;BME280;52544;48.116;11.660;2023-09-19T11:08:07;95616.38;;;23.88;85.05
65800;BME280;52544;48.116;11.660;2023-09-19T11:10:49;95612.09;;;24.18;78.90
65800;BME280;52544;48.116;11.660;2023-09-19T11:26:47;95614.97;;;23.72;78.08
65800;BME280;52544;48.116;11.660;2023-09-19T11:29:30;95606.91;;;23.45;88.69
65800;BME280;52544;48.116;11.660;2023-09-19T11:31:57;95608.53;;;23.60;81.13
65800;BME280;52544;48.116;11.660;2023-09-19T11:34:40;95605.59;;;23.88;77.04
65800;BME280;52544;48.116;11.660;2023-09-19T11:39:39;95604.94;;;24.37;75.20
65800;BME280;52544;48.116;11.660;2023-09-19T11:42:46;95600.88;;;24.60;71.09
65800;BME280;52544;48.116;11.660;2023-09-19T11:48:14;95606.97;;;24.55;61.77
65800;BME280;52544;48.116;11.660;2023-09-19T11:50:42;95612.28;;;24.24;63.70
65800;BME280;52544;48.116;11.660;2023-09-19T11:53:11;95607.19;;;24.02;59.21
65800;BME280;52544;48.116;11.660;2023-09-19T11:55:38;95600.63;;;23.65;64.29
65800;BME280;52544;48.116;11.660;2023-09-19T11:58:06;95613.16;;;23.33;66.94
65800;BME280;52544;48.116;11.660;2023-09-19T12:00:33;95608.59;;;23.13;64.43
65800;BME280;52544;48.116;11.660;2023-09-19T12:03:07;95607.91;;;22.71;79.23
65800;BME280;52544;48.116;11.660;2023-09-19T12:05:34;95599.84;;;22.65;68.98
65800;BME280;52544;48.116;11.660;2023-09-19T12:08:00;95600.84;;;22.57;69.02
65800;BME280;52544;48.116;11.660;2023-09-19T12:10:26;95600.66;;;22.72;69.99
65800;BME280;52544;48.116;11.660;2023-09-19T12:12:52;95604.03;;;23.07;71.62
65800;BME280;52544;48.116;11.660;2023-09-19T12:15:25;95604.41;;;23.44;68.02
65800;BME280;52544;48.116;11.660;2023-09-19T12:17:54;95613.47;;;23.83;61.26
65800;BME280;52544;48.116;11.660;2023-09-19T12:20:19;95605.13;;;23.98;64.07
65800;BME280;52544;48.116;11.660;2023-09-19T12:22:46;95601.59;;;23.90;67.58
65800;BME280;52544;48.116;11.660;2023-09-19T12:25:15;95604.72;;;23.94;71.71
65800;BME280;52544;48.116;11.660;2023-09-19T12:27:47;95605.75;;;23.93;71.30
65800;BME280;52544;48.116;11.660;2023-09-19T12:30:13;95591.19;;;24.01;63.55
65800;BME280;52544;48.116;11.660;2023-09-19T12:32:46;95601.44;;;23.79;72.83
65800;BME280;52544;48.116;11.660;2023-09-19T12:35:33;95599.38;;;23.74;62.97
65800;BME280;52544;48.116;11.660;2023-09-19T12:38:02;95599.34;;;23.81;67.97
65800;BME280;52544;48.116;11.660;2023-09-19T12:40:29;95589.72;;;23.98;61.53
65800;BME280;52544;48.116;11.660;2023-09-19T12:42:58;95592.63;;;24.03;64.61
65800;BME280;52544;48.116;11.660;2023-09-19T12:45:25;95585.31;;;24.10;65.58
65800;BME280;52544;48.116;11.660;2023-09-19T12:53:34;95579.28;;;24.53;65.13
65800;BME280;52544;48.116;11.660;2023-09-19T12:56:03;95585.91;;;24.57;66.84
65800;BME280;52544;48.116;11.660;2023-09-19T12:58:31;95587.47;;;24.72;59.65
65800;BME280;52544;48.116;11.660;2023-09-19T13:00:57;95587.66;;;24.77;61.06
65800;BME280;52544;48.116;11.660;2023-09-19T13:08:27;95584.13;;;25.01;65.66
65800;BME280;52544;48.116;11.660;2023-09-19T13:13:34;95577.75;;;25.21;62.18
65800;BME280;52544;48.116;11.660;2023-09-19T13:16:01;95573.84;;;25.35;61.93
65800;BME280;52544;48.116;11.660;2023-09-19T13:18:27;95579.91;;;25.55;55.19
65800;BME280;52544;48.116;11.660;2023-09-19T13:21:06;95568.00;;;25.38;63.13
65800;BME280;52544;48.116;11.660;2023-09-19T13:23:32;95565.81;;;25.47;63.80
65800;BME280;52544;48.116;11.660;2023-09-19T13:25:57;95562.44;;;25.51;63.27
65800;BME280;52544;48.116;11.660;2023-09-19T13:28:23;95567.78;;;25.58;55.91
65800;BME280;52544;48.116;11.660;2023-09-19T13:30:48;95567.25;;;25.67;58.71
65800;BME280;52544;48.116;11.660;2023-09-19T13:33:13;95564.63;;;25.61;64.46
65800;BME280;52544;48.116;11.660;2023-09-19T13:35:46;95553.44;;;25.57;60.44
65800;BME280;52544;48.116;11.660;2023-09-19T13:38:13;95551.53;;;25.58;65.42
65800;BME280;52544;48.116;11.660;2023-09-19T13:40:39;95554.00;;;25.59;66.96